createdAt,value
2023-05-04T00:03:31.242Z,1.10
2023-05-04T00:08:33.802Z,1.30
2023-05-04T00:13:36.425Z,1.10
2023-05-04T00:18:39.566Z,1.23
2023-05-04T00:23:42.349Z,1.40
2023-05-04T00:28:44.968Z,1.92
2023-05-04T00:33:47.903Z,1.30
2023-05-04T00:38:52.571Z,1.30
2023-05-04T00:43:55.049Z,1.30
2023-05-04T00:48:59.721Z,1.20
2023-05-04T00:54:02.422Z,1.20
2023-05-04T00:59:05.001Z,1.52
2023-05-04T01:04:07.796Z,1.10
2023-05-04T01:09:25.674Z,1.33
2023-05-04T01:14:30.407Z,1.30
2023-05-04T01:19:33.787Z,1.08
2023-05-04T01:24:38.849Z,1.30
2023-05-04T01:30:00.476Z,1.20
2023-05-04T01:35:03.681Z,1.35
2023-05-04T01:40:07.185Z,1.30
2023-05-04T01:45:10.286Z,1.40
2023-05-04T01:50:13.861Z,1.08
2023-05-04T01:55:16.563Z,1.27
2023-05-04T02:00:19.384Z,1.30
2023-05-04T02:05:22.047Z,1.75
2023-05-04T02:10:24.610Z,1.70
2023-05-04T02:15:27.273Z,1.60
2023-05-04T02:20:31.210Z,1.63
2023-05-04T02:25:33.698Z,1.75
2023-05-04T02:30:36.342Z,1.70
2023-05-04T02:35:39.056Z,1.85
2023-05-04T02:40:41.835Z,1.50
2023-05-04T02:45:44.445Z,1.70
2023-05-04T02:50:47.070Z,1.83
2023-05-04T02:55:49.921Z,1.67
2023-05-04T03:00:56.450Z,1.80
2023-05-04T03:05:58.986Z,1.60
2023-05-04T03:11:01.562Z,1.80
2023-05-04T03:16:05.956Z,1.67
2023-05-04T03:21:08.831Z,1.92
2023-05-04T03:26:11.903Z,2.05
2023-05-04T03:31:14.515Z,2.33
2023-05-04T03:36:17.662Z,1.92
2023-05-04T03:41:21.207Z,1.90
2023-05-04T03:46:23.825Z,1.77
2023-05-04T03:51:28.087Z,1.80
2023-05-04T03:56:30.836Z,1.85
2023-05-04T04:01:34.096Z,2.22
2023-05-04T04:06:38.092Z,2.42
2023-05-04T04:11:41.073Z,2.45
2023-05-04T04:16:43.792Z,2.33
2023-05-04T04:21:46.428Z,1.98
2023-05-04T04:26:48.916Z,2.60
2023-05-04T04:31:51.981Z,2.42
2023-05-04T04:36:54.690Z,2.75
2023-05-04T04:41:57.323Z,2.60
2023-05-04T04:46:59.888Z,2.35
2023-05-04T04:52:03.143Z,2.47
2023-05-04T04:57:06.345Z,2.33
2023-05-04T05:07:12.529Z,2.95
2023-05-04T05:12:15.018Z,2.75
2023-05-04T05:17:18.428Z,2.25
2023-05-04T05:22:21.193Z,2.72
2023-05-04T05:27:23.688Z,2.30
2023-05-04T05:32:26.239Z,3.05
2023-05-04T05:37:28.806Z,2.67
2023-05-04T05:42:31.329Z,3.00
2023-05-04T05:47:33.942Z,2.53
2023-05-04T05:52:36.665Z,2.83
2023-05-04T05:57:39.146Z,2.70
2023-05-04T06:02:42.060Z,2.53
2023-05-04T06:12:47.407Z,2.05
2023-05-04T06:17:50.132Z,3.22
2023-05-04T06:27:55.026Z,2.00
2023-05-04T06:32:57.694Z,3.15
2023-05-04T06:38:00.235Z,2.88
2023-05-04T06:43:02.749Z,2.95
2023-05-04T06:48:05.549Z,2.60
2023-05-04T06:58:12.232Z,2.35
2023-05-04T07:03:15.135Z,2.60
2023-05-04T07:08:18.149Z,2.83
2023-05-04T07:13:20.941Z,3.33
2023-05-04T07:23:25.818Z,3.08
2023-05-04T07:28:28.408Z,3.22
2023-05-04T07:33:31.301Z,2.70
2023-05-04T07:38:34.234Z,4.13
2023-05-04T07:43:37.793Z,2.90
2023-05-04T07:48:41.609Z,4.38
2023-05-04T07:53:44.294Z,2.72
2023-05-04T08:03:50.545Z,3.67
2023-05-04T08:08:53.158Z,4.32
2023-05-04T08:18:57.944Z,3.90
2023-05-04T08:24:00.727Z,2.85
2023-05-04T08:29:13.526Z,2.50
2023-05-04T08:34:16.819Z,5.43
2023-05-04T08:39:19.666Z,3.47
2023-05-04T08:44:23.077Z,3.40
2023-05-04T08:49:27.206Z,4.95
2023-05-04T08:54:30.287Z,3.33
2023-05-04T08:59:33.641Z,3.95
2023-05-04T09:04:36.548Z,3.53
2023-05-04T09:09:39.097Z,3.70
2023-05-04T09:14:41.944Z,3.30
2023-05-04T09:19:45.118Z,4.10
2023-05-04T09:24:48.068Z,3.00
2023-05-04T09:29:54.492Z,6.13
2023-05-04T09:34:57.085Z,6.78
2023-05-04T09:40:01.007Z,2.42
2023-05-04T09:45:06.390Z,3.45
2023-05-04T09:50:20.893Z,2.63
2023-05-04T09:55:25.541Z,4.03
2023-05-04T10:00:28.801Z,2.60
2023-05-04T10:05:31.683Z,2.35
2023-05-04T10:10:36.300Z,3.17
2023-05-04T10:16:02.047Z,2.55
2023-05-04T10:21:26.753Z,2.55
2023-05-04T10:26:48.019Z,2.97
2023-05-04T10:31:51.477Z,2.47
2023-05-04T10:36:54.236Z,2.53
2023-05-04T10:47:08.473Z,2.17
2023-05-04T10:52:16.551Z,2.58
2023-05-04T10:57:19.288Z,2.03
2023-05-04T11:02:30.323Z,3.03
2023-05-04T11:07:38.849Z,2.63
2023-05-04T11:12:43.840Z,2.25
2023-05-04T11:17:55.456Z,2.20
2023-05-04T11:22:58.992Z,2.53
2023-05-04T11:28:01.834Z,2.63
2023-05-04T11:33:14.587Z,2.00
2023-05-04T11:38:23.119Z,2.10
2023-05-04T11:43:25.998Z,2.58
2023-05-04T11:48:32.369Z,1.77
2023-05-04T11:53:39.576Z,2.30
2023-05-04T11:58:42.542Z,2.70
2023-05-04T12:03:53.754Z,2.50
2023-05-04T12:09:02.704Z,2.35
2023-05-04T12:14:07.258Z,1.98
2023-05-04T12:19:13.335Z,2.35
2023-05-04T12:24:16.267Z,2.45
2023-05-04T12:29:18.784Z,2.90
2023-05-04T12:34:21.448Z,2.78
2023-05-04T12:39:24.354Z,3.30
2023-05-04T12:44:27.054Z,3.80
2023-05-04T12:49:29.592Z,3.38
2023-05-04T12:54:32.133Z,3.92
2023-05-04T12:59:34.616Z,5.10
2023-05-04T13:04:37.188Z,4.43
2023-05-04T13:09:40.367Z,5.60
2023-05-04T13:14:42.838Z,3.30
2023-05-04T13:19:45.263Z,3.65
2023-05-04T13:24:47.658Z,2.83
2023-05-04T13:29:50.356Z,3.53
2023-05-04T13:34:52.986Z,2.92
2023-05-04T13:39:55.537Z,3.17
2023-05-04T13:44:58.320Z,2.92
2023-05-04T13:50:00.975Z,3.28
2023-05-04T13:55:04.183Z,3.70
2023-05-04T14:00:08.762Z,3.78
2023-05-04T14:05:14.355Z,5.85
2023-05-04T14:10:17.066Z,4.38
2023-05-04T14:15:23.020Z,14.52
2023-05-04T14:20:25.707Z,8.07
2023-05-04T14:25:28.300Z,2.90
2023-05-04T14:30:31.905Z,2.33
2023-05-04T14:35:37.650Z,3.63
2023-05-04T14:40:40.338Z,4.38
2023-05-04T14:45:43.117Z,4.03
2023-05-04T14:50:45.629Z,3.88
2023-05-04T14:55:48.674Z,3.22
2023-05-04T15:00:51.248Z,3.95
2023-05-04T15:05:53.654Z,3.58
2023-05-04T15:10:59.605Z,3.22
2023-05-04T15:16:02.328Z,3.10
2023-05-04T15:21:04.935Z,4.22
2023-05-04T15:26:07.408Z,3.33
2023-05-04T15:31:10.518Z,3.00
2023-05-04T15:36:13.031Z,3.45
2023-05-04T15:41:15.502Z,5.63
2023-05-04T15:46:17.953Z,5.78
2023-05-04T15:51:21.238Z,6.50
2023-05-04T15:56:23.881Z,7.57
2023-05-04T16:01:26.495Z,8.00
2023-05-04T16:06:29.364Z,8.85
2023-05-04T16:11:33.405Z,10.70
2023-05-04T16:16:35.951Z,8.70
2023-05-04T16:21:38.738Z,8.52
2023-05-04T16:26:41.404Z,9.00
2023-05-04T16:31:47.681Z,8.45
2023-05-04T16:36:50.141Z,10.88
2023-05-04T16:41:52.724Z,10.05
2023-05-04T16:46:55.409Z,10.00
2023-05-04T16:51:57.996Z,10.38
2023-05-04T16:57:00.627Z,10.93
2023-05-04T17:02:03.327Z,9.90
2023-05-04T17:07:06.467Z,9.38
2023-05-04T17:17:12.208Z,9.15
2023-05-04T17:22:14.799Z,10.18
2023-05-04T17:27:17.324Z,10.07
2023-05-04T17:32:20.029Z,8.70
2023-05-04T17:37:22.611Z,10.82
2023-05-04T17:42:25.089Z,9.07
2023-05-04T17:47:27.590Z,11.05
2023-05-04T17:52:30.076Z,9.60
2023-05-04T17:57:32.720Z,8.95
2023-05-04T18:02:35.277Z,8.75
2023-05-04T18:07:38.013Z,8.88
2023-05-04T18:12:40.853Z,8.68
2023-05-04T18:17:43.731Z,9.70
2023-05-04T18:22:47.091Z,9.77
2023-05-04T18:27:49.772Z,8.85
2023-05-04T18:32:52.324Z,7.53
2023-05-04T18:37:54.867Z,7.97
2023-05-04T18:42:57.411Z,6.88
2023-05-04T18:47:59.982Z,8.82
2023-05-04T18:53:05.590Z,8.43
2023-05-04T18:58:08.170Z,7.82
2023-05-04T19:03:10.665Z,7.38
2023-05-04T19:08:13.226Z,5.22
2023-05-04T19:13:16.684Z,5.45
2023-05-04T19:18:19.375Z,5.20
2023-05-04T19:23:22.256Z,4.85
2023-05-04T19:28:24.821Z,5.35
2023-05-04T19:33:40.538Z,5.97
2023-05-04T19:38:50.155Z,6.55
2023-05-04T19:43:52.894Z,5.97
2023-05-04T19:48:55.426Z,5.55
2023-05-04T19:53:57.958Z,5.28
2023-05-04T19:59:00.822Z,5.45
2023-05-04T20:04:03.468Z,6.15
2023-05-04T20:09:05.934Z,6.85
2023-05-04T20:14:08.425Z,4.80
2023-05-04T20:19:10.999Z,5.35
2023-05-04T20:24:13.676Z,4.32
2023-05-04T20:29:16.845Z,4.45
2023-05-04T20:34:19.405Z,5.93
2023-05-04T20:39:21.965Z,5.55
2023-05-04T20:44:24.637Z,8.57
2023-05-04T20:49:27.163Z,7.97
2023-05-04T20:54:29.689Z,7.75
2023-05-04T20:59:32.223Z,6.38
2023-05-04T21:04:34.712Z,4.78
2023-05-04T21:09:37.305Z,4.63
2023-05-04T21:14:39.829Z,4.85
2023-05-04T21:19:42.532Z,6.20
2023-05-04T21:24:46.823Z,7.78
2023-05-04T21:34:55.349Z,8.88
2023-05-04T21:39:57.833Z,5.18
2023-05-04T21:45:00.437Z,5.18
2023-05-04T21:50:04.194Z,4.25
2023-05-04T21:55:07.540Z,4.35
2023-05-04T22:00:18.108Z,4.20
2023-05-04T22:05:23.582Z,4.53
2023-05-04T22:10:26.083Z,4.40
2023-05-04T22:15:38.237Z,3.72
2023-05-04T22:20:48.998Z,4.43
2023-05-04T22:25:51.738Z,4.85
2023-05-04T22:30:54.142Z,6.63
2023-05-04T22:35:56.514Z,5.85
2023-05-04T22:40:58.895Z,6.70
2023-05-04T22:46:01.368Z,7.88
2023-05-04T22:51:03.905Z,10.30
2023-05-04T22:56:06.497Z,12.30
2023-05-04T23:01:13.394Z,13.68
2023-05-04T23:06:15.974Z,13.20
2023-05-04T23:11:22.248Z,9.35
2023-05-04T23:16:24.672Z,7.75
2023-05-04T23:21:27.679Z,6.93
2023-05-04T23:26:30.148Z,5.35
2023-05-04T23:31:32.617Z,5.25
2023-05-04T23:36:35.017Z,4.60
2023-05-04T23:41:37.476Z,3.50
2023-05-04T23:46:39.859Z,3.72
2023-05-04T23:51:42.253Z,3.70
2023-05-04T23:56:44.611Z,3.00
